createdAt,value
2023-03-11T00:00:57.259Z,98678.84
2023-03-11T00:02:00.950Z,98678.00
2023-03-11T00:03:05.799Z,98678.66
2023-03-11T00:04:09.392Z,98674.91
2023-03-11T00:05:16.853Z,98677.56
2023-03-11T00:06:20.481Z,98674.03
2023-03-11T00:07:23.040Z,98679.94
2023-03-11T00:08:26.965Z,98682.28
2023-03-11T00:09:29.389Z,98683.13
2023-03-11T00:10:35.155Z,98687.13
2023-03-11T00:11:37.765Z,98693.81
2023-03-11T00:12:41.444Z,98688.31
2023-03-11T00:13:44.092Z,98675.56
2023-03-11T00:14:47.597Z,98691.41
2023-03-11T00:15:56.017Z,98697.97
2023-03-11T00:17:01.185Z,98695.78
2023-03-11T00:18:06.342Z,98697.44
2023-03-11T00:19:10.814Z,98692.94
2023-03-11T00:20:19.471Z,98701.28
2023-03-11T00:21:23.115Z,98700.06
2023-03-11T00:22:25.635Z,98697.41
2023-03-11T00:23:30.342Z,98706.31
2023-03-11T00:24:32.851Z,98694.00
2023-03-11T00:25:37.985Z,98706.06
2023-03-11T00:26:41.615Z,98709.72
2023-03-11T00:27:44.112Z,98701.03
2023-03-11T00:28:48.808Z,98699.28
2023-03-11T00:29:51.443Z,98703.69
2023-03-11T00:30:55.486Z,98708.06
2023-03-11T00:31:58.079Z,98715.22
2023-03-11T00:33:03.504Z,98712.03
2023-03-11T00:34:06.099Z,98704.56
2023-03-11T00:35:13.488Z,98716.66
2023-03-11T00:36:31.775Z,98713.16
2023-03-11T00:37:34.755Z,98719.41
2023-03-11T00:38:38.387Z,98721.28
2023-03-11T00:39:41.002Z,98718.88
2023-03-11T00:40:46.112Z,98717.53
2023-03-11T00:41:48.718Z,98723.72
2023-03-11T00:42:53.059Z,98724.59
2023-03-11T00:43:55.603Z,98728.09
2023-03-11T00:44:59.274Z,98726.56
2023-03-11T00:46:05.119Z,98729.09
2023-03-11T00:47:07.951Z,98726.56
2023-03-11T00:48:14.029Z,98735.69
2023-03-11T00:49:16.563Z,98737.47
2023-03-11T00:50:22.599Z,98731.75
2023-03-11T00:51:25.213Z,98734.94
2023-03-11T00:52:29.141Z,98730.41
2023-03-11T00:53:32.793Z,98732.06
2023-03-11T00:54:35.311Z,98738.97
2023-03-11T00:55:38.924Z,98738.13
2023-03-11T00:56:41.992Z,98737.25
2023-03-11T00:57:46.101Z,98744.25
2023-03-11T00:58:48.576Z,98750.09
2023-03-11T00:59:52.644Z,98748.47
2023-03-11T01:00:56.428Z,98751.84
2023-03-11T01:01:59.184Z,98753.63
2023-03-11T01:03:02.916Z,98761.09
2023-03-11T01:04:07.480Z,98761.97
2023-03-11T01:05:12.073Z,98758.22
2023-03-11T01:06:15.105Z,98755.69
2023-03-11T01:07:18.681Z,98763.19
2023-03-11T01:08:21.170Z,98762.06
2023-03-11T01:09:24.824Z,98765.16
2023-03-11T01:10:28.263Z,98765.16
2023-03-11T01:11:31.848Z,98762.69
2023-03-11T01:12:34.672Z,98768.84
2023-03-11T01:13:38.713Z,98770.41
2023-03-11T01:14:41.273Z,98775.22
2023-03-11T01:15:44.838Z,98767.41
2023-03-11T01:16:47.509Z,98772.47
2023-03-11T01:17:51.212Z,98778.03
2023-03-11T01:18:53.681Z,98752.63
2023-03-11T01:19:58.725Z,98779.59
2023-03-11T01:21:01.600Z,98781.88
2023-03-11T01:22:05.469Z,98785.84
2023-03-11T01:23:08.447Z,98792.53
2023-03-11T01:24:12.107Z,98797.00
2023-03-11T01:25:16.610Z,98799.00
2023-03-11T01:26:20.309Z,98797.88
2023-03-11T01:27:22.826Z,98799.50
2023-03-11T01:28:26.439Z,98800.53
2023-03-11T01:29:28.911Z,98808.75
2023-03-11T01:30:32.982Z,98809.19
2023-03-11T01:31:35.475Z,98815.88
2023-03-11T01:32:39.138Z,98808.06
2023-03-11T01:33:41.877Z,98811.09
2023-03-11T01:34:45.459Z,98816.78
2023-03-11T01:35:49.739Z,98821.63
2023-03-11T01:36:53.356Z,98810.28
2023-03-11T01:37:56.163Z,98822.16
2023-03-11T01:38:59.798Z,98796.84
2023-03-11T01:40:02.478Z,98832.91
2023-03-11T01:41:06.835Z,98821.91
2023-03-11T01:42:09.378Z,98822.66
2023-03-11T01:43:48.317Z,98832.91
2023-03-11T01:44:52.020Z,98832.03
2023-03-11T01:46:14.134Z,98839.72
2023-03-11T01:47:36.652Z,98841.00
2023-03-11T01:48:39.273Z,98840.00
2023-03-11T01:49:43.053Z,98843.41
2023-03-11T01:50:50.163Z,98833.13
2023-03-11T01:51:55.974Z,98850.50
2023-03-11T01:52:58.452Z,98854.56
2023-03-11T01:54:07.095Z,98846.84
2023-03-11T01:55:13.039Z,98848.38
2023-03-11T01:56:16.752Z,98854.31
2023-03-11T01:57:21.759Z,98849.69
2023-03-11T01:58:28.135Z,98859.66
2023-03-11T01:59:33.761Z,98857.16
2023-03-11T02:00:38.903Z,98870.50
2023-03-11T02:01:50.400Z,98867.25
2023-03-11T02:02:55.408Z,98865.31
2023-03-11T02:03:58.814Z,98866.22
2023-03-11T02:05:04.541Z,98859.19
2023-03-11T02:06:12.207Z,98861.56
2023-03-11T02:07:16.616Z,98872.44
2023-03-11T02:08:19.165Z,98875.72
2023-03-11T02:09:24.348Z,98872.94
2023-03-11T02:10:27.857Z,98878.78
2023-03-11T02:11:32.826Z,98886.22
2023-03-11T02:12:37.260Z,98887.72
2023-03-11T02:13:43.320Z,98890.38
2023-03-11T02:14:49.261Z,98887.25
2023-03-11T02:15:53.770Z,98893.28
2023-03-11T02:16:57.695Z,98895.56
2023-03-11T02:18:03.543Z,98893.91
2023-03-11T02:19:17.988Z,98902.38
2023-03-11T02:20:31.878Z,98901.63
2023-03-11T02:21:36.078Z,98894.44
2023-03-11T02:22:41.944Z,98902.78
2023-03-11T02:23:52.128Z,98907.06
2023-03-11T02:24:58.402Z,98909.59
2023-03-11T02:26:09.920Z,98910.22
2023-03-11T02:27:17.424Z,98908.22
2023-03-11T02:28:23.273Z,98904.44
2023-03-11T02:29:27.838Z,98918.81
2023-03-11T02:30:34.415Z,98913.63
2023-03-11T02:31:41.819Z,98925.25
2023-03-11T02:32:48.699Z,98923.38
2023-03-11T02:33:56.340Z,98925.88
2023-03-11T02:34:58.823Z,98924.63
2023-03-11T02:36:02.607Z,98925.13
2023-03-11T02:37:07.095Z,98919.34
2023-03-11T02:38:10.816Z,98926.03
2023-03-11T02:39:13.663Z,98931.69
2023-03-11T02:40:42.978Z,98919.31
2023-03-11T02:41:47.329Z,98927.03
2023-03-11T02:42:55.601Z,98931.19
2023-03-11T02:43:59.467Z,98929.41
2023-03-11T02:45:04.763Z,98935.97
2023-03-11T02:46:10.315Z,98935.97
2023-03-11T02:47:14.246Z,98933.72
2023-03-11T02:48:17.132Z,98940.50
2023-03-11T02:49:21.898Z,98912.28
2023-03-11T02:50:26.025Z,98941.28
2023-03-11T02:51:29.639Z,98940.28
2023-03-11T02:52:34.376Z,98943.81
2023-03-11T02:53:42.934Z,98944.56
2023-03-11T02:54:45.608Z,98949.34
2023-03-11T02:55:49.279Z,98945.94
2023-03-11T02:56:51.770Z,98955.00
2023-03-11T02:57:56.856Z,98952.50
2023-03-11T02:58:59.433Z,98943.19
2023-03-11T03:00:11.192Z,98946.56
2023-03-11T03:01:13.824Z,98957.53
2023-03-11T03:02:17.924Z,98954.75
2023-03-11T03:03:20.458Z,98958.81
2023-03-11T03:04:24.101Z,98963.22
2023-03-11T03:05:26.693Z,98966.47
2023-03-11T03:06:30.492Z,98959.94
2023-03-11T03:07:33.439Z,98960.59
2023-03-11T03:08:37.091Z,98962.56
2023-03-11T03:09:39.619Z,98969.41
2023-03-11T03:10:43.148Z,98966.09
2023-03-11T03:11:45.791Z,98968.78
2023-03-11T03:12:49.503Z,98976.19
2023-03-11T03:13:54.549Z,98972.81
2023-03-11T03:14:58.309Z,98966.72
2023-03-11T03:16:02.331Z,98971.91
2023-03-11T03:17:05.165Z,98976.97
2023-03-11T03:18:08.892Z,98973.28
2023-03-11T03:19:11.556Z,98986.91
2023-03-11T03:20:16.709Z,98983.13
2023-03-11T03:21:19.217Z,98979.72
2023-03-11T03:22:24.556Z,98981.59
2023-03-11T03:23:28.221Z,98981.22
2023-03-11T03:24:30.756Z,98980.34
2023-03-11T03:25:34.445Z,98979.34
2023-03-11T03:26:37.636Z,98956.66
2023-03-11T03:27:41.440Z,98986.16
2023-03-11T03:28:44.016Z,98980.22
2023-03-11T03:29:49.515Z,98979.84
2023-03-11T03:30:52.025Z,98985.28
2023-03-11T03:31:55.756Z,98985.91
2023-03-11T03:32:58.366Z,98989.41
2023-03-11T03:34:01.893Z,98990.16
2023-03-11T03:35:05.167Z,98992.69
2023-03-11T03:36:10.207Z,98992.06
2023-03-11T03:37:12.770Z,98999.50
2023-03-11T03:38:16.650Z,99003.66
2023-03-11T03:39:19.943Z,99009.69
2023-03-11T03:40:23.966Z,99002.91
2023-03-11T03:41:26.490Z,98993.47
2023-03-11T03:42:30.308Z,99002.13
2023-03-11T03:43:32.920Z,99009.84
2023-03-11T03:44:36.597Z,99004.19
2023-03-11T03:45:41.678Z,99005.69
2023-03-11T03:46:44.232Z,99007.59
2023-03-11T03:47:48.103Z,99008.97
2023-03-11T03:48:50.681Z,98998.75
2023-03-11T03:49:54.363Z,99003.91
2023-03-11T03:50:57.087Z,99001.41
2023-03-11T03:52:00.538Z,98999.50
2023-03-11T03:53:03.101Z,98999.63
2023-03-11T03:54:06.796Z,99008.69
2023-03-11T03:55:10.071Z,99006.31
2023-03-11T03:56:17.037Z,99005.16
2023-03-11T03:57:19.515Z,99004.53
2023-03-11T03:58:23.156Z,99009.59
2023-03-11T03:59:25.845Z,99010.31
2023-03-11T04:00:29.344Z,99011.22
2023-03-11T04:01:33.358Z,99004.28
2023-03-11T04:02:36.963Z,99007.81
2023-03-11T04:03:39.926Z,99018.03
2023-03-11T04:04:43.784Z,99019.03
2023-03-11T04:05:46.323Z,99024.22
2023-03-11T04:06:49.996Z,98983.47
2023-03-11T04:07:52.602Z,99016.41
2023-03-11T04:08:56.946Z,99029.50
2023-03-11T04:09:59.483Z,99026.38
2023-03-11T04:11:03.126Z,99027.50
2023-03-11T04:12:06.275Z,99035.84
2023-03-11T04:13:09.879Z,99042.00
2023-03-11T04:14:12.406Z,99041.16
2023-03-11T04:15:16.267Z,99033.81
2023-03-11T04:16:21.928Z,99044.31
2023-03-11T04:17:27.050Z,99043.66
2023-03-11T04:18:29.513Z,99056.53
2023-03-11T04:19:34.041Z,99050.72
2023-03-11T04:20:39.296Z,99053.66
2023-03-11T04:21:43.423Z,99050.50
2023-03-11T04:22:45.907Z,99046.72
2023-03-11T04:23:49.570Z,99055.28
2023-03-11T04:24:53.234Z,99054.16
2023-03-11T04:25:55.940Z,99055.28
2023-03-11T04:26:59.525Z,99056.16
2023-03-11T04:28:01.990Z,99059.09
2023-03-11T04:29:05.565Z,99059.84
2023-03-11T04:30:09.663Z,99058.19
2023-03-11T04:31:13.711Z,99055.03
2023-03-11T04:32:16.265Z,99070.44
2023-03-11T04:33:21.383Z,99064.13
2023-03-11T04:34:23.933Z,99069.06
2023-03-11T04:35:27.686Z,99058.81
2023-03-11T04:36:30.606Z,99067.16
2023-03-11T04:37:34.218Z,99067.28
2023-03-11T04:38:36.758Z,99075.72
2023-03-11T04:39:40.397Z,99078.66
2023-03-11T04:40:43.127Z,99077.88
2023-03-11T04:41:46.864Z,99070.28
2023-03-11T04:42:49.345Z,99071.72
2023-03-11T04:43:52.915Z,99083.81
2023-03-11T04:44:55.432Z,99074.84
2023-03-11T04:45:59.008Z,99081.91
2023-03-11T04:47:02.985Z,99081.28
2023-03-11T04:48:05.233Z,99085.84
2023-03-11T04:49:10.564Z,99084.94
2023-03-11T04:50:13.171Z,99096.06
2023-03-11T04:51:18.452Z,99086.19
2023-03-11T04:52:21.187Z,99085.06
2023-03-11T04:53:24.854Z,99087.84
2023-03-11T04:54:27.495Z,99091.16
2023-03-11T04:55:31.385Z,99101.72
2023-03-11T04:56:34.135Z,99097.19
2023-03-11T04:57:38.279Z,99102.47
2023-03-11T04:58:40.888Z,99086.34
2023-03-11T04:59:44.566Z,99099.72
2023-03-11T05:00:47.423Z,99100.84
2023-03-11T05:01:51.026Z,99110.06
2023-03-11T05:02:54.084Z,99115.88
2023-03-11T05:03:57.752Z,99127.34
2023-03-11T05:05:01.962Z,99120.78
2023-03-11T05:06:06.108Z,99129.13
2023-03-11T05:07:08.616Z,99132.78
2023-03-11T05:08:12.416Z,99124.19
2023-03-11T05:09:14.982Z,99126.34
2023-03-11T05:10:22.779Z,99120.81
2023-03-11T05:11:25.435Z,99126.34
2023-03-11T05:12:29.065Z,99122.81
2023-03-11T05:13:33.132Z,99126.84
2023-03-11T05:14:35.668Z,99129.00
2023-03-11T05:15:39.349Z,99117.63
2023-03-11T05:16:43.099Z,99126.06
2023-03-11T05:17:45.972Z,99132.13
2023-03-11T05:18:50.058Z,99133.03
2023-03-11T05:19:53.814Z,99142.47
2023-03-11T05:20:58.893Z,99132.38
2023-03-11T05:22:01.853Z,99135.31
2023-03-11T05:23:06.004Z,99136.31
2023-03-11T05:24:08.428Z,99139.06
2023-03-11T05:25:12.044Z,99141.72
2023-03-11T05:26:15.161Z,99135.03
2023-03-11T05:27:20.031Z,99124.81
2023-03-11T05:28:22.737Z,99136.63
2023-03-11T05:29:27.322Z,99138.13
2023-03-11T05:30:29.899Z,99147.56
2023-03-11T05:31:33.477Z,99148.53
2023-03-11T05:32:36.045Z,99144.19
2023-03-11T05:33:39.652Z,99148.84
2023-03-11T05:34:42.331Z,99143.94
2023-03-11T05:35:45.857Z,99153.09
2023-03-11T05:36:49.931Z,99152.84
2023-03-11T05:37:54.994Z,99159.78
2023-03-11T05:38:57.553Z,99154.72
2023-03-11T05:40:01.524Z,99152.53
2023-03-11T05:41:06.639Z,99154.47
2023-03-11T05:42:12.121Z,99161.31
2023-03-11T05:43:14.669Z,99159.03
2023-03-11T05:44:18.377Z,99161.13
2023-03-11T05:45:21.090Z,99160.91
2023-03-11T05:46:24.827Z,99163.19
2023-03-11T05:47:27.403Z,99169.75
2023-03-11T05:48:31.094Z,99173.44
2023-03-11T05:49:33.620Z,99177.44
2023-03-11T05:50:37.356Z,99180.16
2023-03-11T05:51:40.646Z,99170.66
2023-03-11T05:52:45.652Z,99177.16
2023-03-11T05:53:49.556Z,99182.56
2023-03-11T05:54:53.050Z,99186.00
2023-03-11T05:55:59.092Z,99180.69
2023-03-11T05:57:02.857Z,99177.44
2023-03-11T05:58:05.405Z,99175.88
2023-03-11T05:59:09.033Z,99178.63
2023-03-11T06:00:12.578Z,99186.81
2023-03-11T06:01:18.494Z,99185.28
2023-03-11T06:02:23.450Z,99182.06
2023-03-11T06:03:26.226Z,99184.38
2023-03-11T06:04:30.061Z,99185.94
2023-03-11T06:05:34.404Z,99192.19
2023-03-11T06:06:37.682Z,99171.03
2023-03-11T06:07:41.432Z,99187.25
2023-03-11T06:08:49.974Z,99193.88
2023-03-11T06:09:53.659Z,99190.34
2023-03-11T06:11:02.475Z,99182.66
2023-03-11T06:12:07.165Z,99184.22
2023-03-11T06:13:10.055Z,99184.69
2023-03-11T06:14:14.666Z,99184.25
2023-03-11T06:15:17.275Z,99187.34
2023-03-11T06:16:20.851Z,99187.34
2023-03-11T06:17:23.671Z,99189.22
2023-03-11T06:18:27.772Z,99190.34
2023-03-11T06:19:30.347Z,99188.94
2023-03-11T06:20:34.066Z,99196.13
2023-03-11T06:21:36.878Z,99191.53
2023-03-11T06:22:40.765Z,99191.97
2023-03-11T06:23:44.359Z,99193.41
2023-03-11T06:24:47.946Z,99196.25
2023-03-11T06:25:56.465Z,99194.72
2023-03-11T06:27:00.114Z,99200.59
2023-03-11T06:28:02.862Z,99196.38
2023-03-11T06:29:06.451Z,99200.78
2023-03-11T06:30:10.627Z,99208.25
2023-03-11T06:31:17.322Z,99201.44
2023-03-11T06:32:20.989Z,99208.16
2023-03-11T06:33:24.433Z,99216.63
2023-03-11T06:34:28.042Z,99208.91
2023-03-11T06:35:30.589Z,99216.94
2023-03-11T06:36:34.612Z,99210.72
2023-03-11T06:37:37.696Z,99212.66
2023-03-11T06:38:41.891Z,99213.88
2023-03-11T06:39:46.950Z,99214.63
2023-03-11T06:40:49.430Z,99223.44
2023-03-11T06:41:52.987Z,99220.91
2023-03-11T06:42:55.502Z,99224.09
2023-03-11T06:44:01.559Z,99221.91
2023-03-11T06:45:04.443Z,99225.47
2023-03-11T06:46:12.068Z,99225.66
2023-03-11T06:47:14.659Z,99217.63
2023-03-11T06:48:18.293Z,99225.69
2023-03-11T06:49:21.192Z,99216.84
2023-03-11T06:50:25.134Z,99220.84
2023-03-11T06:51:27.889Z,99223.97
2023-03-11T06:52:31.444Z,99221.97
2023-03-11T06:53:34.306Z,99221.97
2023-03-11T06:54:38.677Z,99224.97
2023-03-11T06:55:42.785Z,99226.72
2023-03-11T06:56:46.646Z,99224.19
2023-03-11T06:57:49.164Z,99226.94
2023-03-11T06:58:53.184Z,99228.72
2023-03-11T06:59:57.315Z,99226.44
2023-03-11T07:01:04.293Z,99235.69
2023-03-11T07:02:08.393Z,99235.03
2023-03-11T07:03:10.852Z,99236.66
2023-03-11T07:04:14.905Z,99240.31
2023-03-11T07:05:18.097Z,99230.50
2023-03-11T07:06:23.585Z,99234.38
2023-03-11T07:07:26.031Z,99235.25
2023-03-11T07:08:30.564Z,99234.72
2023-03-11T07:09:34.125Z,99236.25
2023-03-11T07:10:37.104Z,99233.47
2023-03-11T07:11:42.238Z,99234.25
2023-03-11T07:12:44.948Z,99233.59
2023-03-11T07:13:48.612Z,99241.22
2023-03-11T07:14:55.289Z,99240.97
2023-03-11T07:16:03.478Z,99243.06
2023-03-11T07:17:06.117Z,99243.63
2023-03-11T07:18:09.738Z,99248.84
2023-03-11T07:19:12.935Z,99257.03
2023-03-11T07:20:16.729Z,99256.53
2023-03-11T07:21:21.203Z,99254.44
2023-03-11T07:22:24.927Z,99262.25
2023-03-11T07:23:27.433Z,99264.38
2023-03-11T07:24:31.247Z,99267.31
2023-03-11T07:25:34.474Z,99267.09
2023-03-11T07:26:37.153Z,99263.00
2023-03-11T07:27:42.156Z,99261.47
2023-03-11T07:28:46.012Z,99274.78
2023-03-11T07:29:48.229Z,99266.69
2023-03-11T07:30:52.302Z,99263.25
2023-03-11T07:31:55.049Z,99264.38
2023-03-11T07:32:58.688Z,99268.00
2023-03-11T07:34:04.467Z,99270.25
2023-03-11T07:35:08.292Z,99267.47
2023-03-11T07:36:12.902Z,99268.81
2023-03-11T07:37:15.646Z,99265.84
2023-03-11T07:38:20.042Z,99271.94
2023-03-11T07:39:22.526Z,99264.34
2023-03-11T07:40:26.082Z,99264.75
2023-03-11T07:41:28.522Z,99268.63
2023-03-11T07:42:34.685Z,99268.63
2023-03-11T07:43:38.875Z,99271.06
2023-03-11T07:44:42.826Z,99269.50
2023-03-11T07:45:45.459Z,99281.28
2023-03-11T07:46:49.131Z,99277.34
2023-03-11T07:47:52.101Z,99276.78
2023-03-11T07:48:56.420Z,99275.34
2023-03-11T07:49:58.937Z,99280.34
2023-03-11T07:51:04.657Z,99284.19
2023-03-11T07:52:07.904Z,99278.47
2023-03-11T07:53:11.856Z,99279.06
2023-03-11T07:54:14.350Z,99282.47
2023-03-11T07:55:18.242Z,99269.66
2023-03-11T07:56:22.928Z,99275.00
2023-03-11T07:57:27.315Z,99285.47
2023-03-11T07:58:30.666Z,99291.22
2023-03-11T07:59:35.592Z,99284.25
2023-03-11T08:00:38.113Z,99286.91
2023-03-11T08:01:47.409Z,99286.34
2023-03-11T08:02:50.064Z,99288.59
2023-03-11T08:03:57.545Z,99286.34
2023-03-11T08:05:01.245Z,99290.88
2023-03-11T08:06:04.523Z,99292.06
2023-03-11T08:07:08.362Z,99285.59
2023-03-11T08:08:10.497Z,99287.56
2023-03-11T08:09:14.604Z,99291.13
2023-03-11T08:10:17.582Z,99295.97
2023-03-11T08:11:22.636Z,99299.91
2023-03-11T08:12:25.308Z,99296.63
2023-03-11T08:13:28.815Z,99290.66
2023-03-11T08:14:32.478Z,99302.31
2023-03-11T08:15:37.400Z,99300.03
2023-03-11T08:16:42.062Z,99296.63
2023-03-11T08:17:44.446Z,99294.50
2023-03-11T08:18:48.652Z,99302.75
2023-03-11T08:19:52.715Z,99302.97
2023-03-11T08:20:56.179Z,99294.09
2023-03-11T08:21:58.617Z,99300.16
2023-03-11T08:23:02.111Z,99305.75
2023-03-11T08:24:07.000Z,99302.47
2023-03-11T08:25:10.247Z,99316.91
2023-03-11T08:26:15.504Z,99300.56
2023-03-11T08:27:19.080Z,99310.97
2023-03-11T08:28:21.528Z,99297.25
2023-03-11T08:29:25.222Z,99309.63
2023-03-11T08:30:27.950Z,99312.41
2023-03-11T08:31:35.308Z,99306.44
2023-03-11T08:32:39.028Z,99315.19
2023-03-11T08:33:42.273Z,99316.38
2023-03-11T08:34:45.894Z,99314.31
2023-03-11T08:35:48.777Z,99314.31
2023-03-11T08:36:52.669Z,99313.31
2023-03-11T08:37:55.125Z,99309.56
2023-03-11T08:39:01.494Z,99311.25
2023-03-11T08:40:05.333Z,99309.25
2023-03-11T08:41:09.806Z,99319.41
2023-03-11T08:42:13.296Z,99313.97
2023-03-11T08:43:16.120Z,99322.94
2023-03-11T08:44:19.782Z,99316.06
2023-03-11T08:45:22.623Z,99317.38
2023-03-11T08:46:28.452Z,99321.34
2023-03-11T08:47:36.562Z,99324.44
2023-03-11T08:48:40.076Z,99323.13
2023-03-11T08:49:43.799Z,99314.50
2023-03-11T08:50:53.947Z,99324.31
2023-03-11T08:51:57.408Z,99326.47
2023-03-11T08:53:03.395Z,99335.97
2023-03-11T08:54:07.842Z,99327.53
2023-03-11T08:55:13.715Z,99327.56
2023-03-11T08:56:17.359Z,99326.34
2023-03-11T08:57:21.278Z,99330.44
2023-03-11T08:58:25.146Z,99339.69
2023-03-11T08:59:27.564Z,99333.19
2023-03-11T09:00:31.199Z,99328.88
2023-03-11T09:01:33.771Z,99329.75
2023-03-11T09:02:39.163Z,99323.19
2023-03-11T09:03:41.753Z,99333.88
2023-03-11T09:04:45.350Z,99324.06
2023-03-11T09:05:47.823Z,99327.88
2023-03-11T09:06:51.540Z,99332.63
2023-03-11T09:07:54.374Z,99324.53
2023-03-11T09:08:58.153Z,99331.72
2023-03-11T09:10:00.346Z,99334.34
2023-03-11T09:11:04.332Z,99334.47
2023-03-11T09:12:08.689Z,99329.47
2023-03-11T09:13:11.477Z,99332.91
2023-03-11T09:14:15.200Z,99328.59
2023-03-11T09:15:18.038Z,99333.88
2023-03-11T09:16:23.485Z,99337.22
2023-03-11T09:17:26.745Z,99327.22
2023-03-11T09:18:32.505Z,99326.47
2023-03-11T09:19:37.399Z,99319.94
2023-03-11T09:20:40.234Z,99342.16
2023-03-11T09:21:44.445Z,99328.63
2023-03-11T09:22:48.806Z,99328.84
2023-03-11T09:23:52.830Z,99325.63
2023-03-11T09:24:55.972Z,99332.03
2023-03-11T09:26:00.489Z,99330.56
2023-03-11T09:27:03.567Z,99325.47
2023-03-11T09:28:08.199Z,99323.25
2023-03-11T09:29:12.269Z,99313.53
2023-03-11T09:30:15.153Z,99329.31
2023-03-11T09:31:19.225Z,99324.81
2023-03-11T09:32:22.119Z,99328.16
2023-03-11T09:33:26.598Z,99333.16
2023-03-11T09:34:32.431Z,99336.94
2023-03-11T09:35:35.163Z,99342.19
2023-03-11T09:36:38.852Z,99340.78
2023-03-11T09:37:41.377Z,99350.66
2023-03-11T09:38:45.138Z,99346.13
2023-03-11T09:39:47.486Z,99343.47
2023-03-11T09:40:58.380Z,99341.28
2023-03-11T09:42:12.372Z,99339.63
2023-03-11T09:43:23.155Z,99339.41
2023-03-11T09:44:34.342Z,99345.28
2023-03-11T09:45:43.805Z,99342.53
2023-03-11T09:47:06.421Z,99343.06
2023-03-11T09:48:13.962Z,99344.28
2023-03-11T09:49:25.240Z,99350.38
2023-03-11T09:50:34.418Z,99347.03
2023-03-11T09:51:41.692Z,99355.84
2023-03-11T09:52:52.071Z,99345.13
2023-03-11T09:54:00.525Z,99349.84
2023-03-11T09:55:05.943Z,99349.53
2023-03-11T09:56:13.524Z,99354.19
2023-03-11T09:57:21.532Z,99355.34
2023-03-11T09:58:37.980Z,99351.22
2023-03-11T09:59:43.892Z,99350.63
2023-03-11T10:00:48.409Z,99351.38
2023-03-11T10:01:52.098Z,99350.06
2023-03-11T10:02:58.829Z,99349.72
2023-03-11T10:04:10.165Z,99359.53
2023-03-11T10:05:21.936Z,99358.41
2023-03-11T10:06:30.184Z,99353.88
2023-03-11T10:07:37.225Z,99354.41
2023-03-11T10:08:45.717Z,99357.38
2023-03-11T10:09:53.247Z,99357.97
2023-03-11T10:11:06.718Z,99352.41
2023-03-11T10:12:26.651Z,99348.22
2023-03-11T10:13:36.204Z,99355.06
2023-03-11T10:14:57.158Z,99354.66
2023-03-11T10:16:14.144Z,99350.69
2023-03-11T10:17:42.320Z,99354.03
2023-03-11T10:19:02.578Z,99349.16
2023-03-11T10:20:20.484Z,99345.72
2023-03-11T10:21:39.976Z,99358.97
2023-03-11T10:22:48.624Z,99353.00
2023-03-11T10:24:08.842Z,99351.22
2023-03-11T10:25:14.984Z,99350.94
2023-03-11T10:26:25.133Z,99357.34
2023-03-11T10:27:33.091Z,99352.91
2023-03-11T10:28:40.652Z,99357.50
2023-03-11T10:29:53.598Z,99349.31
2023-03-11T10:31:03.287Z,99352.34
2023-03-11T10:32:14.299Z,99346.97
2023-03-11T10:33:26.292Z,99344.16
2023-03-11T10:34:34.803Z,99344.84
2023-03-11T10:35:40.955Z,99353.06
2023-03-11T10:36:55.558Z,99350.25
2023-03-11T10:38:05.410Z,99356.69
2023-03-11T10:39:25.200Z,99356.38
2023-03-11T10:40:31.860Z,99355.00
2023-03-11T10:41:51.286Z,99361.50
2023-03-11T10:42:56.728Z,99357.06
2023-03-11T10:44:07.242Z,99355.22
2023-03-11T10:45:13.847Z,99362.78
2023-03-11T10:46:20.875Z,99356.22
2023-03-11T10:47:26.521Z,99365.09
2023-03-11T10:48:28.995Z,99366.38
2023-03-11T10:49:35.512Z,99365.09
2023-03-11T10:50:43.674Z,99350.66
2023-03-11T10:51:49.463Z,99363.22
2023-03-11T10:53:11.905Z,99358.28
2023-03-11T10:54:24.700Z,99371.44
2023-03-11T10:55:28.990Z,99365.75
2023-03-11T10:56:35.493Z,99362.69
2023-03-11T10:57:56.962Z,99331.13
2023-03-11T10:59:02.042Z,99363.16
2023-03-11T11:00:12.611Z,99374.53
2023-03-11T11:01:18.941Z,99370.75
2023-03-11T11:02:28.114Z,99364.88
2023-03-11T11:03:31.002Z,99379.69
2023-03-11T11:04:38.384Z,99376.72
2023-03-11T11:05:41.493Z,99371.19
2023-03-11T11:06:45.469Z,99377.47
2023-03-11T11:07:50.652Z,99375.16
2023-03-11T11:09:33.388Z,99374.84
2023-03-11T11:10:57.580Z,99380.75
2023-03-11T11:12:07.860Z,99377.69
2023-03-11T11:13:19.633Z,99378.66
2023-03-11T11:14:24.378Z,99380.59
2023-03-11T11:15:29.895Z,99385.63
2023-03-11T11:16:35.671Z,99358.94
2023-03-11T11:17:41.758Z,99375.31
2023-03-11T11:18:49.469Z,99382.00
2023-03-11T11:19:53.741Z,99383.41
2023-03-11T11:21:01.469Z,99384.47
2023-03-11T11:22:06.863Z,99385.16
2023-03-11T11:23:27.948Z,99384.34
2023-03-11T11:24:33.164Z,99383.97
2023-03-11T11:25:38.534Z,99384.72
2023-03-11T11:26:42.063Z,99380.81
2023-03-11T11:27:54.568Z,99390.09
2023-03-11T11:29:09.450Z,99387.38
2023-03-11T11:30:17.031Z,99391.84
2023-03-11T11:31:27.155Z,99393.25
2023-03-11T11:32:29.703Z,99388.13
2023-03-11T11:33:35.479Z,99393.59
2023-03-11T11:34:54.007Z,99377.56
2023-03-11T11:36:11.072Z,99388.31
2023-03-11T11:37:19.210Z,99395.19
2023-03-11T11:38:26.660Z,99389.59
2023-03-11T11:39:33.654Z,99394.63
2023-03-11T11:40:38.041Z,99394.06
2023-03-11T11:41:40.706Z,99375.13
2023-03-11T11:42:50.161Z,99387.28
2023-03-11T11:43:56.302Z,99384.25
2023-03-11T11:45:03.930Z,99395.84
2023-03-11T11:46:13.662Z,99389.28
2023-03-11T11:47:20.493Z,99389.53
2023-03-11T11:48:28.695Z,99382.88
2023-03-11T11:49:34.082Z,99377.28
2023-03-11T11:50:39.176Z,99378.72
2023-03-11T11:51:48.788Z,99380.63
2023-03-11T11:52:57.816Z,99377.72
2023-03-11T11:54:10.631Z,99381.31
2023-03-11T11:55:21.267Z,99384.22
2023-03-11T11:56:26.029Z,99382.97
2023-03-11T11:57:29.431Z,99382.50
2023-03-11T11:58:33.183Z,99382.34
2023-03-11T11:59:37.315Z,99384.56
2023-03-11T12:00:51.058Z,99376.84
2023-03-11T12:02:08.799Z,99378.84
2023-03-11T12:03:30.103Z,99383.66
2023-03-11T12:04:52.002Z,99384.56
2023-03-11T12:05:59.205Z,99379.25
2023-03-11T12:07:20.539Z,99379.78
2023-03-11T12:08:32.385Z,99380.31
2023-03-11T12:09:49.077Z,99390.66
2023-03-11T12:10:58.932Z,99384.06
2023-03-11T12:12:12.126Z,99384.22
2023-03-11T12:13:40.334Z,99393.44
2023-03-11T12:14:49.357Z,99387.22
2023-03-11T12:15:59.939Z,99390.31
2023-03-11T12:17:05.691Z,99387.75
2023-03-11T12:18:15.629Z,99386.53
2023-03-11T12:19:21.939Z,99386.88
2023-03-11T12:20:32.873Z,99393.34
2023-03-11T12:22:07.444Z,99389.38
2023-03-11T12:23:22.114Z,99389.91
2023-03-11T12:24:47.662Z,99382.59
2023-03-11T12:26:07.929Z,99387.34
2023-03-11T12:27:19.557Z,99391.03
2023-03-11T12:28:31.491Z,99382.69
2023-03-11T12:29:36.088Z,99394.19
2023-03-11T12:30:46.206Z,99394.53
2023-03-11T12:31:51.188Z,99392.47
2023-03-11T12:33:04.930Z,99396.03
2023-03-11T12:34:12.571Z,99385.06
2023-03-11T12:35:23.551Z,99396.69
2023-03-11T12:36:44.665Z,99390.41
2023-03-11T12:38:09.646Z,99357.63
2023-03-11T12:39:23.482Z,99390.91
2023-03-11T12:40:59.523Z,99393.94
2023-03-11T12:42:20.785Z,99394.94
2023-03-11T12:43:47.635Z,99393.94
2023-03-11T12:44:51.587Z,99397.34
2023-03-11T12:45:55.713Z,99392.94
2023-03-11T12:47:05.172Z,99396.59
2023-03-11T12:48:33.886Z,99405.84
2023-03-11T12:49:37.203Z,99400.91
2023-03-11T12:50:43.850Z,99401.81
2023-03-11T12:52:02.371Z,99403.78
2023-03-11T12:53:06.523Z,99401.31